createdAt,value
2019-02-12T00:03:50.906Z,86.30
2019-02-12T00:08:26.691Z,86.50
2019-02-12T00:13:02.477Z,86.90
2019-02-12T00:17:38.249Z,86.90
2019-02-12T00:26:47.614Z,87.40
2019-02-12T00:31:23.375Z,87.10
2019-02-12T00:35:59.152Z,87.80
2019-02-12T00:40:34.908Z,87.20
2019-02-12T00:45:11.226Z,87.40
2019-02-12T00:49:47.592Z,86.80
2019-02-12T00:54:24.185Z,87.70
2019-02-12T00:59:00.181Z,88.10
2019-02-12T01:03:35.948Z,88.90
2019-02-12T01:08:11.709Z,89.10
2019-02-12T01:12:47.489Z,88.60
2019-02-12T01:17:23.569Z,88.30
2019-02-12T01:21:59.354Z,87.70
2019-02-12T01:26:35.116Z,87.10
2019-02-12T01:31:10.896Z,86.60
2019-02-12T01:35:46.653Z,86.90
2019-02-12T01:40:22.433Z,86.90
2019-02-12T01:44:58.199Z,86.00
2019-02-12T01:49:33.964Z,85.70
2019-02-12T01:54:09.729Z,85.30
2019-02-12T01:58:45.497Z,84.10
2019-02-12T02:03:21.245Z,83.80
2019-02-12T02:07:57.022Z,82.80
2019-02-12T02:12:32.788Z,82.80
2019-02-12T02:17:08.561Z,82.10
2019-02-12T02:21:44.422Z,81.60
2019-02-12T02:26:20.501Z,85.30
2019-02-12T02:30:56.257Z,86.00
2019-02-12T02:35:32.044Z,86.60
2019-02-12T02:40:08.772Z,87.30
2019-02-12T02:44:44.537Z,87.20
2019-02-12T02:49:20.272Z,87.30
2019-02-12T02:53:56.044Z,85.50
2019-02-12T02:58:31.811Z,86.30
2019-02-12T03:03:07.603Z,85.50
2019-02-12T03:07:43.368Z,85.50
2019-02-12T03:12:19.155Z,84.80
2019-02-12T03:16:54.909Z,85.50
2019-02-12T03:21:30.696Z,86.20
2019-02-12T03:26:06.590Z,87.00
2019-02-12T03:30:42.399Z,87.20
2019-02-12T03:35:18.170Z,87.00
2019-02-12T03:39:53.934Z,85.50
2019-02-12T03:44:29.705Z,84.80
2019-02-12T03:49:05.466Z,83.00
2019-02-12T03:53:41.516Z,83.70
2019-02-12T03:58:17.323Z,84.10
2019-02-12T04:03:01.239Z,84.30
2019-02-12T04:07:37.022Z,83.40
2019-02-12T04:12:12.790Z,85.10
2019-02-12T04:16:48.962Z,84.50
2019-02-12T04:21:24.798Z,85.00
2019-02-12T04:26:00.596Z,84.40
2019-02-12T04:30:36.769Z,84.60
2019-02-12T04:35:12.537Z,84.40
2019-02-12T04:39:48.301Z,84.40
2019-02-12T04:44:24.083Z,84.00
2019-02-12T04:48:59.848Z,84.40
2019-02-12T04:53:35.659Z,84.80
2019-02-12T04:58:11.489Z,85.70
2019-02-12T05:02:47.273Z,85.50
2019-02-12T05:07:23.046Z,86.50
2019-02-12T05:12:01.509Z,86.70
2019-02-12T05:16:37.259Z,87.30
2019-02-12T05:21:13.121Z,87.20
2019-02-12T05:25:48.898Z,85.80
2019-02-12T05:30:24.746Z,84.20
2019-02-12T05:35:00.597Z,83.80
2019-02-12T05:39:36.478Z,85.10
2019-02-12T05:44:12.249Z,85.50
2019-02-12T05:48:48.045Z,86.30
2019-02-12T05:53:23.813Z,85.90
2019-02-12T05:57:59.609Z,86.70
2019-02-12T06:02:35.434Z,86.50
2019-02-12T06:07:11.228Z,86.20
2019-02-12T06:11:46.987Z,86.20
2019-02-12T06:16:22.758Z,86.50
2019-02-12T06:20:58.525Z,84.20
2019-02-12T06:25:34.409Z,84.70
2019-02-12T06:30:10.369Z,85.30
2019-02-12T06:34:46.158Z,85.10
2019-02-12T06:39:21.933Z,84.20
2019-02-12T06:43:57.709Z,83.60
2019-02-12T06:48:33.462Z,83.90
2019-02-12T06:53:12.479Z,82.50
2019-02-12T06:57:46.688Z,83.00
2019-02-12T07:02:58.424Z,83.10
2019-02-12T07:08:05.888Z,84.40
2019-02-12T07:13:22.613Z,83.20
2019-02-12T07:18:24.321Z,82.90
2019-02-12T07:28:32.610Z,83.50
2019-02-12T07:33:45.196Z,82.60
2019-02-12T07:38:45.206Z,83.20
2019-02-12T07:43:48.539Z,83.20
2019-02-12T07:48:52.822Z,82.60
2019-02-12T07:54:14.050Z,82.70
2019-02-12T07:59:01.100Z,82.80
2019-02-12T08:04:06.025Z,82.30
2019-02-12T08:09:11.640Z,81.30
2019-02-12T08:19:20.649Z,79.40
2019-02-12T08:24:18.434Z,78.90
2019-02-12T08:29:29.418Z,79.20
2019-02-12T08:39:12.027Z,78.20
2019-02-12T08:44:19.238Z,78.20
2019-02-12T08:49:30.710Z,78.00
2019-02-12T08:54:46.201Z,77.80
2019-02-12T08:59:46.974Z,78.40
2019-02-12T09:04:59.377Z,78.80
2019-02-12T09:14:52.816Z,79.00
2019-02-12T09:19:36.544Z,77.40
2019-02-12T09:24:59.973Z,77.40
2019-02-12T09:30:20.792Z,77.60
2019-02-12T09:35:18.321Z,74.60
2019-02-12T09:40:18.575Z,74.50
2019-02-12T09:45:14.694Z,73.50
2019-02-12T09:50:41.480Z,74.60
2019-02-12T10:00:45.130Z,72.90
2019-02-12T10:05:53.009Z,73.00
2019-02-12T10:10:49.891Z,72.10
2019-02-12T10:15:52.574Z,73.20
2019-02-12T10:20:37.881Z,71.60
2019-02-12T10:25:27.282Z,69.80
2019-02-12T10:30:24.627Z,70.70
2019-02-12T10:35:00.395Z,70.00
2019-02-12T10:39:36.152Z,69.00
2019-02-12T10:44:12.014Z,70.40
2019-02-12T10:48:47.822Z,67.20
2019-02-12T10:53:23.663Z,66.20
2019-02-12T10:57:59.439Z,67.80
2019-02-12T11:02:35.244Z,65.50
2019-02-12T11:07:11.001Z,66.00
2019-02-12T11:11:46.794Z,64.00
2019-02-12T11:16:22.551Z,66.70
2019-02-12T11:20:58.324Z,64.80
2019-02-12T11:25:34.097Z,64.10
2019-02-12T11:30:09.904Z,64.90
2019-02-12T11:34:45.660Z,65.50
2019-02-12T11:39:21.436Z,65.10
2019-02-12T11:43:57.201Z,62.40
2019-02-12T11:48:32.984Z,61.70
2019-02-12T11:53:08.793Z,63.40
2019-02-12T11:57:44.587Z,64.00
2019-02-12T12:02:21.916Z,60.40
2019-02-12T12:06:58.090Z,59.30
2019-02-12T12:11:34.092Z,58.10
2019-02-12T12:16:11.204Z,57.40
2019-02-12T12:20:47.213Z,57.50
2019-02-12T12:25:23.025Z,58.40
2019-02-12T12:29:59.221Z,58.40
2019-02-12T12:34:35.005Z,58.10
2019-02-12T12:39:10.768Z,58.10
2019-02-12T12:43:46.555Z,58.40
2019-02-12T12:48:22.342Z,58.40
2019-02-12T12:52:58.112Z,59.60
2019-02-12T12:57:41.322Z,60.50
2019-02-12T13:02:11.426Z,59.00
2019-02-12T13:06:47.453Z,57.40
2019-02-12T13:11:23.237Z,58.80
2019-02-12T13:15:59.124Z,58.90
2019-02-12T13:20:34.900Z,58.20
2019-02-12T13:25:11.460Z,57.20
2019-02-12T13:29:47.557Z,57.50
2019-02-12T13:34:25.048Z,58.40
2019-02-12T13:39:20.245Z,60.30
2019-02-12T13:43:56.024Z,58.50
2019-02-12T13:48:31.814Z,58.40
2019-02-12T13:53:07.585Z,58.30
2019-02-12T13:57:43.389Z,55.80
2019-02-12T14:02:19.158Z,55.40
2019-02-12T14:06:54.956Z,56.40
2019-02-12T14:11:31.693Z,54.90
2019-02-12T14:16:06.769Z,55.60
2019-02-12T14:20:42.530Z,55.50
2019-02-12T14:25:25.243Z,53.40
2019-02-12T14:29:55.992Z,52.70
2019-02-12T14:34:31.788Z,53.80
2019-02-12T14:39:07.567Z,53.70
2019-02-12T14:43:43.865Z,52.40
2019-02-12T14:48:19.838Z,52.40
2019-02-12T14:52:55.616Z,52.60
2019-02-12T14:57:31.434Z,52.70
2019-02-12T15:02:07.432Z,53.00
2019-02-12T15:06:43.185Z,54.00
2019-02-12T15:11:19.008Z,54.00
2019-02-12T15:15:54.785Z,54.20
2019-02-12T15:20:30.805Z,55.90
2019-02-12T15:25:07.259Z,55.00
2019-02-12T15:29:43.060Z,54.80
2019-02-12T15:34:18.825Z,55.50
2019-02-12T15:38:54.932Z,54.00
2019-02-12T15:43:30.808Z,53.60
2019-02-12T15:48:06.801Z,54.10
2019-02-12T15:52:42.704Z,55.30
2019-02-12T15:57:18.495Z,55.10
2019-02-12T16:01:54.481Z,55.50
2019-02-12T16:06:30.625Z,58.40
2019-02-12T16:11:06.649Z,60.00
2019-02-12T16:15:43.519Z,62.20
2019-02-12T16:20:20.214Z,63.00
2019-02-12T16:24:55.997Z,64.30
2019-02-12T16:29:31.810Z,63.60
2019-02-12T16:34:07.762Z,63.90
2019-02-12T16:38:43.750Z,63.90
2019-02-12T16:43:19.549Z,64.20
2019-02-12T16:47:55.901Z,63.80
2019-02-12T16:52:31.684Z,64.30
2019-02-12T16:57:07.661Z,65.00
2019-02-12T17:01:43.520Z,64.90
2019-02-12T17:06:19.293Z,64.90
2019-02-12T17:10:55.114Z,66.30
2019-02-12T17:15:31.050Z,66.50
2019-02-12T17:20:10.097Z,66.90
2019-02-12T17:24:45.860Z,66.50
2019-02-12T17:29:21.625Z,66.20
2019-02-12T17:33:57.392Z,66.60
2019-02-12T17:38:33.185Z,66.80
2019-02-12T17:43:09.022Z,66.90
2019-02-12T17:47:44.793Z,67.00
2019-02-12T17:52:20.556Z,66.80
2019-02-12T17:56:56.371Z,67.10
2019-02-12T18:01:32.136Z,67.50
2019-02-12T18:06:07.922Z,67.80
2019-02-12T18:10:43.684Z,68.00
2019-02-12T18:15:19.548Z,66.80
2019-02-12T18:19:55.513Z,66.70
2019-02-12T18:24:31.301Z,66.70
2019-02-12T18:29:07.073Z,66.70
2019-02-12T18:33:42.861Z,66.50
2019-02-12T18:38:18.625Z,66.20
2019-02-12T18:42:54.413Z,67.10
2019-02-12T18:47:30.170Z,67.80
2019-02-12T18:52:07.064Z,67.30
2019-02-12T18:56:42.830Z,68.00
2019-02-12T19:01:18.629Z,68.20
2019-02-12T19:05:54.409Z,68.20
2019-02-12T19:10:30.211Z,68.20
2019-02-12T19:15:07.324Z,68.60
2019-02-12T19:19:43.308Z,68.70
2019-02-12T19:24:19.156Z,68.40
2019-02-12T19:28:54.958Z,68.80
2019-02-12T19:33:30.790Z,68.50
2019-02-12T19:38:06.556Z,68.70
2019-02-12T19:42:44.401Z,68.40
2019-02-12T19:47:20.307Z,69.00
2019-02-12T19:51:56.076Z,68.90
2019-02-12T19:56:31.941Z,69.80
2019-02-12T20:01:07.713Z,70.30
2019-02-12T20:05:43.501Z,70.60
2019-02-12T20:10:19.275Z,70.60
2019-02-12T20:14:55.054Z,70.60
2019-02-12T20:19:30.825Z,71.50
2019-02-12T20:24:07.858Z,70.20
2019-02-12T20:28:43.620Z,70.00
2019-02-12T20:33:19.421Z,73.30
2019-02-12T20:37:55.185Z,74.10
2019-02-12T20:42:31.004Z,74.70
2019-02-12T20:47:06.884Z,74.40
2019-02-12T20:51:42.710Z,72.60
2019-02-12T20:56:18.561Z,73.30
2019-02-12T21:00:54.610Z,72.90
2019-02-12T21:10:07.675Z,73.10
2019-02-12T21:14:43.432Z,73.20
2019-02-12T21:19:19.205Z,72.50
2019-02-12T21:23:54.964Z,73.20
2019-02-12T21:28:30.776Z,73.20
2019-02-12T21:33:08.370Z,73.60
2019-02-12T21:37:44.150Z,72.00
2019-02-12T21:42:19.988Z,72.40
2019-02-12T21:46:55.819Z,71.80
2019-02-12T21:51:31.594Z,71.90
2019-02-12T21:56:07.373Z,71.60
2019-02-12T22:00:43.132Z,71.40
2019-02-12T22:05:18.926Z,70.90
2019-02-12T22:09:54.717Z,71.50
2019-02-12T22:14:31.129Z,72.50
2019-02-12T22:19:06.985Z,72.30
2019-02-12T22:23:42.777Z,71.10
2019-02-12T22:28:18.545Z,71.40
2019-02-12T22:32:54.377Z,71.50
2019-02-12T22:37:30.228Z,71.50
2019-02-12T22:42:06.002Z,72.00
2019-02-12T22:46:41.753Z,72.00
2019-02-12T22:51:17.537Z,71.60
2019-02-12T22:55:53.286Z,71.60
2019-02-12T23:00:39.861Z,71.40
2019-02-12T23:05:15.604Z,71.30
2019-02-12T23:09:51.376Z,70.80
2019-02-12T23:14:27.135Z,71.10
2019-02-12T23:19:02.919Z,71.60
2019-02-12T23:23:38.676Z,71.50
2019-02-12T23:28:14.457Z,72.10
2019-02-12T23:32:50.205Z,71.70
2019-02-12T23:37:26.004Z,72.00
2019-02-12T23:42:01.757Z,71.30
2019-02-12T23:46:37.545Z,72.20
2019-02-12T23:51:13.309Z,71.90
2019-02-12T23:55:49.096Z,71.90
